Time;durP1;ratioP1;P1;durP2;ratioP2;P2;SDS_P1;SDS_P2;PMS_P1;PMS_P2;Temp;Humidity;BMP_temperature;BMP_pressure;BME280_temperature;BME280_humidity;BME280_pressure;Samples;Min_cycle;Max_cycle;Signal;HPM_P1;HPM_P2
2024/03/08 00:00:27;;;;;;;;;;;9.20;68.50;;;;;;5021132;28;19994;-74
2024/03/08 00:02:53;;;;;;;;;;;9.10;69.20;;;;;;5025806;28;20527;-77
2024/03/08 00:05:19;;;;;;;;;;;9.00;69.50;;;;;;5025212;28;19998;-75
2024/03/08 00:07:46;;;;;;;;;;;8.90;70.10;;;;;;5023450;28;20100;-76
2024/03/08 00:10:12;;;;;;;;;;;9.00;69.50;;;;;;5021603;28;20021;-75
2024/03/08 00:12:41;;;;;;;;;;;9.10;69.20;;;;;;5028600;28;20035;-75
2024/03/08 00:15:10;;;;;;;;;;;9.10;69.20;;;;;;5029641;28;19996;-74
2024/03/08 00:17:36;;;;;;;;;;;9.10;69.10;;;;;;5027134;28;19996;-76
2024/03/08 00:20:08;;;;;;;;;;;9.10;69.90;;;;;;5021600;28;20412;-75
2024/03/08 00:22:34;;;;;;;;;;;9.10;69.00;;;;;;5004316;28;20488;-75
2024/03/08 00:24:59;;;;;;;;;;;9.10;69.40;;;;;;5021327;28;19990;-75
2024/03/08 00:27:25;;;;;;;;;;;9.00;69.60;;;;;;5022006;28;19996;-76
2024/03/08 00:29:50;;;;;;;;;;;9.10;69.50;;;;;;5021620;28;20092;-73
2024/03/08 00:32:17;;;;;;;;;;;9.10;69.60;;;;;;5022293;28;19994;-74
2024/03/08 00:34:42;;;;;;;;;;;9.20;69.50;;;;;;5026144;28;19994;-76
2024/03/08 00:37:08;;;;;;;;;;;9.00;69.70;;;;;;5022155;28;20757;-74
2024/03/08 00:39:34;;;;;;;;;;;9.10;69.40;;;;;;5021667;28;19999;-74
2024/03/08 00:41:59;;;;;;;;;;;9.30;68.70;;;;;;5021258;28;20176;-76
2024/03/08 00:44:25;;;;;;;;;;;9.20;69.10;;;;;;5022720;28;20000;-77
2024/03/08 00:46:51;;;;;;;;;;;9.30;68.90;;;;;;5022664;28;20016;-74
2024/03/08 00:49:17;;;;;;;;;;;9.30;68.70;;;;;;5027503;28;19989;-75
2024/03/08 00:51:43;;;;;;;;;;;9.30;68.80;;;;;;5021295;28;20532;-76
2024/03/08 00:54:09;;;;;;;;;;;9.30;69.00;;;;;;5022891;28;20800;-75
2024/03/08 00:56:35;;;;;;;;;;;9.30;69.00;;;;;;5033482;28;19996;-75
2024/03/08 00:59:02;;;;;;;;;;;9.20;69.00;;;;;;5026182;28;19990;-74
2024/03/08 01:01:28;;;;;;;;;;;9.20;69.20;;;;;;5023670;28;19990;-73
2024/03/08 01:03:53;;;;;;;;;;;9.20;69.30;;;;;;5034964;28;19994;-75
2024/03/08 01:06:19;;;;;;;;;;;9.20;69.40;;;;;;5025422;28;20558;-75
2024/03/08 01:08:45;;;;;;;;;;;9.30;69.10;;;;;;5038465;28;19993;-73
2024/03/08 01:11:12;;;;;;;;;;;9.30;68.90;;;;;;5032332;28;20405;-74
2024/03/08 01:13:38;;;;;;;;;;;9.20;69.30;;;;;;5019694;28;19994;-72
2024/03/08 01:16:04;;;;;;;;;;;9.10;69.70;;;;;;5027811;28;20051;-74
2024/03/08 01:18:29;;;;;;;;;;;9.20;69.30;;;;;;5027011;28;19990;-76
2024/03/08 01:20:55;;;;;;;;;;;9.00;69.70;;;;;;5024968;28;19990;-74
2024/03/08 01:23:20;;;;;;;;;;;9.20;69.60;;;;;;5027043;28;20004;-74
2024/03/08 01:25:47;;;;;;;;;;;9.20;69.10;;;;;;5029804;28;19994;-73
2024/03/08 01:28:12;;;;;;;;;;;9.30;68.70;;;;;;5030319;28;20457;-75
2024/03/08 01:30:38;;;;;;;;;;;9.30;68.50;;;;;;5028462;28;20017;-73
2024/03/08 01:33:04;;;;;;;;;;;9.30;68.80;;;;;;5027756;28;19998;-75
2024/03/08 01:35:29;;;;;;;;;;;9.20;69.10;;;;;;5029906;28;20524;-76
2024/03/08 01:37:55;;;;;;;;;;;9.30;68.50;;;;;;5034350;28;20471;-74
2024/03/08 01:40:20;;;;;;;;;;;9.20;69.00;;;;;;5026968;28;19997;-75
2024/03/08 01:42:47;;;;;;;;;;;9.30;68.80;;;;;;5026256;28;20001;-74
2024/03/08 01:45:13;;;;;;;;;;;9.20;69.30;;;;;;5028306;28;19986;-74
2024/03/08 01:47:39;;;;;;;;;;;9.30;68.70;;;;;;5029276;28;19996;-74
2024/03/08 01:50:06;;;;;;;;;;;9.40;68.40;;;;;;5026136;28;20508;-75
2024/03/08 01:52:32;;;;;;;;;;;9.30;68.80;;;;;;5025763;28;20084;-74
2024/03/08 01:55:01;;;;;;;;;;;9.20;69.80;;;;;;5030641;28;20080;-73
2024/03/08 01:57:28;;;;;;;;;;;9.20;69.30;;;;;;5028749;28;20147;-74
2024/03/08 01:59:55;;;;;;;;;;;9.20;69.10;;;;;;5024733;28;20033;-75
2024/03/08 02:02:21;;;;;;;;;;;9.20;69.00;;;;;;5030595;28;19989;-75
2024/03/08 02:04:47;;;;;;;;;;;9.20;69.20;;;;;;5025389;28;20076;-74
2024/03/08 02:07:13;;;;;;;;;;;9.10;69.60;;;;;;5032663;28;19998;-74
2024/03/08 02:09:39;;;;;;;;;;;9.10;69.50;;;;;;5031964;28;20017;-74
2024/03/08 02:12:05;;;;;;;;;;;9.30;69.00;;;;;;5030093;28;20036;-75
2024/03/08 02:14:31;;;;;;;;;;;9.30;68.70;;;;;;5030800;28;20377;-75
2024/03/08 02:17:00;;;;;;;;;;;9.20;68.90;;;;;;5032009;28;20005;-74
2024/03/08 02:19:25;;;;;;;;;;;9.40;68.40;;;;;;5027791;28;19996;-73
2024/03/08 02:21:51;;;;;;;;;;;9.20;68.90;;;;;;5031130;28;20373;-77
2024/03/08 02:24:17;;;;;;;;;;;9.20;69.10;;;;;;5027670;28;20703;-74
2024/03/08 02:26:42;;;;;;;;;;;9.30;69.10;;;;;;5012054;28;19996;-76
2024/03/08 02:29:08;;;;;;;;;;;9.30;68.70;;;;;;5033392;28;20052;-74
2024/03/08 02:31:34;;;;;;;;;;;9.30;69.10;;;;;;5024875;28;20060;-74
2024/03/08 02:33:59;;;;;;;;;;;9.20;69.40;;;;;;5027576;28;20093;-76
2024/03/08 02:36:25;;;;;;;;;;;9.20;69.30;;;;;;5026709;28;20068;-75
2024/03/08 02:38:50;;;;;;;;;;;9.20;69.30;;;;;;5027947;28;20870;-74
2024/03/08 02:41:16;;;;;;;;;;;9.20;69.20;;;;;;5026189;28;20005;-78
2024/03/08 02:43:42;;;;;;;;;;;9.30;69.00;;;;;;5031731;28;20569;-76
2024/03/08 02:46:08;;;;;;;;;;;9.30;69.00;;;;;;5021894;28;20017;-75
2024/03/08 02:48:33;;;;;;;;;;;9.20;69.30;;;;;;5030176;28;19989;-75
2024/03/08 02:50:59;;;;;;;;;;;9.30;69.20;;;;;;5021997;28;20059;-78
2024/03/08 02:53:24;;;;;;;;;;;9.30;69.10;;;;;;5032838;28;20000;-75
2024/03/08 02:55:50;;;;;;;;;;;9.30;69.00;;;;;;5029662;28;19993;-74
2024/03/08 02:58:16;;;;;;;;;;;9.20;69.40;;;;;;5027147;28;19994;-74
2024/03/08 03:00:44;;;;;;;;;;;9.30;69.20;;;;;;5025611;28;20016;-77
2024/03/08 03:03:09;;;;;;;;;;;9.20;69.60;;;;;;5028758;28;20013;-76
2024/03/08 03:05:35;;;;;;;;;;;9.30;69.40;;;;;;5014149;28;20534;-75
2024/03/08 03:08:00;;;;;;;;;;;9.20;69.30;;;;;;5030300;28;19997;-73
2024/03/08 03:10:26;;;;;;;;;;;9.20;69.50;;;;;;5028038;28;20037;-75
2024/03/08 03:12:52;;;;;;;;;;;9.10;69.90;;;;;;5033861;28;20005;-77
2024/03/08 03:15:18;;;;;;;;;;;9.10;70.20;;;;;;5028687;28;19990;-75
2024/03/08 03:17:47;;;;;;;;;;;9.20;69.50;;;;;;5025999;28;19990;-74
2024/03/08 03:20:13;;;;;;;;;;;9.10;69.60;;;;;;5026442;28;20072;-74
2024/03/08 03:22:40;;;;;;;;;;;9.20;70.00;;;;;;5027284;28;19996;-76
2024/03/08 03:25:07;;;;;;;;;;;9.20;69.70;;;;;;5029362;28;20001;-74
2024/03/08 03:27:32;;;;;;;;;;;9.10;70.00;;;;;;5028168;28;20056;-77
2024/03/08 03:29:58;;;;;;;;;;;9.20;69.90;;;;;;5027340;28;20010;-73
2024/03/08 03:32:23;;;;;;;;;;;9.30;69.50;;;;;;5026397;28;19993;-73
2024/03/08 03:34:52;;;;;;;;;;;9.50;68.40;;;;;;5027747;28;20088;-75
2024/03/08 03:37:20;;;;;;;;;;;9.40;68.70;;;;;;5009625;28;19997;-75
2024/03/08 03:39:48;;;;;;;;;;;9.30;69.20;;;;;;5028927;28;19997;-75
2024/03/08 03:42:16;;;;;;;;;;;9.20;69.70;;;;;;5026745;28;20021;-76
2024/03/08 03:44:44;;;;;;;;;;;9.20;69.80;;;;;;5028963;28;20670;-74
2024/03/08 03:47:10;;;;;;;;;;;9.20;70.00;;;;;;5026443;28;19997;-76
2024/03/08 03:49:35;;;;;;;;;;;9.30;69.60;;;;;;5030084;28;20000;-74
2024/03/08 03:52:01;;;;;;;;;;;9.40;69.30;;;;;;5032077;28;20071;-78
2024/03/08 03:54:26;;;;;;;;;;;9.30;69.30;;;;;;5027842;28;19993;-77
2024/03/08 03:56:53;;;;;;;;;;;9.20;70.00;;;;;;5033547;28;20001;-75
2024/03/08 03:59:18;;;;;;;;;;;9.30;69.10;;;;;;5029180;28;19997;-74
2024/03/08 04:01:44;;;;;;;;;;;9.30;69.20;;;;;;5030055;28;20015;-75
2024/03/08 04:04:10;;;;;;;;;;;9.20;69.30;;;;;;5026957;28;19990;-76
2024/03/08 04:06:35;;;;;;;;;;;9.20;69.30;;;;;;5030705;28;19993;-73
2024/03/08 04:09:01;;;;;;;;;;;9.30;68.90;;;;;;5026684;28;20555;-74
2024/03/08 04:11:26;;;;;;;;;;;9.20;69.30;;;;;;5032715;28;20060;-77
2024/03/08 04:13:54;;;;;;;;;;;9.20;69.30;;;;;;5032247;28;20760;-75
2024/03/08 04:16:20;;;;;;;;;;;9.30;68.30;;;;;;5029159;28;20059;-75
2024/03/08 04:18:45;;;;;;;;;;;9.20;68.50;;;;;;5027939;28;20456;-74
2024/03/08 04:21:11;;;;;;;;;;;9.30;68.30;;;;;;5031459;28;20017;-75
2024/03/08 04:23:36;;;;;;;;;;;9.20;68.50;;;;;;5025777;28;20040;-75
2024/03/08 04:26:04;;;;;;;;;;;9.20;68.20;;;;;;5022924;28;20784;-76
2024/03/08 04:28:29;;;;;;;;;;;9.40;67.60;;;;;;5010210;28;20740;-75
2024/03/08 04:30:55;;;;;;;;;;;9.30;67.70;;;;;;5028550;28;20013;-74
2024/03/08 04:33:21;;;;;;;;;;;9.30;67.80;;;;;;5024732;28;20465;-75
2024/03/08 04:35:47;;;;;;;;;;;9.30;68.00;;;;;;5025558;28;19993;-75
2024/03/08 04:38:12;;;;;;;;;;;9.30;68.00;;;;;;5027875;28;19990;-76
2024/03/08 04:40:38;;;;;;;;;;;9.40;67.70;;;;;;5030718;28;19989;-73
2024/03/08 04:43:03;;;;;;;;;;;9.40;67.60;;;;;;5026915;28;20472;-75
2024/03/08 04:45:29;;;;;;;;;;;9.40;67.70;;;;;;5029125;28;20512;-75
2024/03/08 04:47:55;;;;;;;;;;;9.40;67.50;;;;;;5031471;28;19994;-74
2024/03/08 04:50:20;;;;;;;;;;;9.30;67.90;;;;;;5028345;28;20059;-74
2024/03/08 04:52:46;;;;;;;;;;;9.30;67.50;;;;;;5030474;28;20089;-74
2024/03/08 04:55:12;;;;;;;;;;;9.40;67.50;;;;;;5030084;28;20115;-74
2024/03/08 04:57:37;;;;;;;;;;;9.40;67.30;;;;;;5034223;28;19994;-76
2024/03/08 05:00:07;;;;;;;;;;;9.40;67.50;;;;;;5028115;28;19994;-74
2024/03/08 05:02:33;;;;;;;;;;;9.40;67.50;;;;;;5029149;28;19990;-74
2024/03/08 05:04:58;;;;;;;;;;;9.40;67.30;;;;;;5031653;28;19990;-73
2024/03/08 05:07:24;;;;;;;;;;;9.40;67.50;;;;;;5031980;28;20516;-76
2024/03/08 05:09:51;;;;;;;;;;;9.40;68.50;;;;;;5027451;28;20017;-76
2024/03/08 05:12:17;;;;;;;;;;;9.30;68.10;;;;;;5028972;28;20104;-74
2024/03/08 05:14:43;;;;;;;;;;;9.40;67.90;;;;;;5027799;28;19996;-74
2024/03/08 05:17:09;;;;;;;;;;;9.40;68.40;;;;;;5028766;28;20422;-72
2024/03/08 05:19:35;;;;;;;;;;;9.30;68.60;;;;;;5031868;28;20719;-74
2024/03/08 05:22:01;;;;;;;;;;;9.50;68.30;;;;;;5027731;28;19993;-74
2024/03/08 05:24:27;;;;;;;;;;;9.40;68.50;;;;;;5030187;28;19993;-74
2024/03/08 05:26:52;;;;;;;;;;;9.40;68.50;;;;;;5029979;28;20001;-75
2024/03/08 05:29:18;;;;;;;;;;;9.40;68.30;;;;;;5030225;28;20570;-72
2024/03/08 05:31:52;;;;;;;;;;;9.40;68.80;;;;;;5029042;28;20084;-74
2024/03/08 05:34:19;;;;;;;;;;;9.50;68.20;;;;;;5028055;28;20008;-76
2024/03/08 05:36:50;;;;;;;;;;;9.50;67.70;;;;;;5032381;28;20017;-75
2024/03/08 05:39:16;;;;;;;;;;;9.40;68.40;;;;;;5027200;28;19985;-74
2024/03/08 05:41:42;;;;;;;;;;;9.50;67.90;;;;;;5035070;28;19990;-76
2024/03/08 05:44:08;;;;;;;;;;;9.40;68.00;;;;;;5030837;28;20000;-72
2024/03/08 05:46:35;;;;;;;;;;;9.50;67.70;;;;;;5012912;28;19989;-73
2024/03/08 05:49:05;;;;;;;;;;;9.40;68.10;;;;;;5027272;28;20072;-72
2024/03/08 05:51:34;;;;;;;;;;;9.40;67.80;;;;;;5029389;28;20006;-74
2024/03/08 05:54:10;;;;;;;;;;;9.40;68.00;;;;;;5020368;28;20036;-73
2024/03/08 05:56:36;;;;;;;;;;;9.30;68.00;;;;;;5020569;28;19986;-73
2024/03/08 05:59:01;;;;;;;;;;;9.30;68.10;;;;;;5024759;28;19997;-74
2024/03/08 06:01:27;;;;;;;;;;;9.40;67.30;;;;;;5030324;28;20113;-73
2024/03/08 06:03:55;;;;;;;;;;;9.40;67.50;;;;;;5025083;28;19993;-75
2024/03/08 06:06:21;;;;;;;;;;;9.30;68.00;;;;;;5026163;28;19990;-73
2024/03/08 06:08:48;;;;;;;;;;;9.20;68.40;;;;;;5027127;28;19997;-74
2024/03/08 06:11:17;;;;;;;;;;;9.30;68.00;;;;;;5028347;28;20028;-73
2024/03/08 06:13:43;;;;;;;;;;;9.20;68.30;;;;;;5023822;28;19990;-72
2024/03/08 06:16:09;;;;;;;;;;;9.30;68.00;;;;;;5025422;28;20551;-76
2024/03/08 06:18:38;;;;;;;;;;;9.30;68.20;;;;;;5025766;28;20080;-73
2024/03/08 06:21:05;;;;;;;;;;;9.20;68.70;;;;;;5031898;28;19989;-73
2024/03/08 06:23:33;;;;;;;;;;;9.30;68.10;;;;;;5023987;28;20053;-73
2024/03/08 06:25:59;;;;;;;;;;;9.20;68.20;;;;;;5025518;28;19994;-76
2024/03/08 06:28:25;;;;;;;;;;;9.30;68.00;;;;;;5029233;28;19996;-74
2024/03/08 06:30:51;;;;;;;;;;;9.20;68.80;;;;;;5031347;28;20203;-73
2024/03/08 06:33:17;;;;;;;;;;;9.20;68.70;;;;;;5026433;28;20085;-75
2024/03/08 06:35:42;;;;;;;;;;;9.20;68.40;;;;;;5024713;28;20522;-76
2024/03/08 06:38:08;;;;;;;;;;;9.20;68.30;;;;;;5023964;28;20043;-74
2024/03/08 06:40:33;;;;;;;;;;;9.30;68.00;;;;;;5023546;28;19989;-73
2024/03/08 06:42:59;;;;;;;;;;;9.20;67.70;;;;;;5024236;28;20067;-75
2024/03/08 06:45:25;;;;;;;;;;;9.20;67.80;;;;;;5024208;28;19990;-75
2024/03/08 06:47:51;;;;;;;;;;;9.30;67.60;;;;;;5005005;28;20342;-73
2024/03/08 06:50:17;;;;;;;;;;;9.30;67.40;;;;;;5023322;28;20025;-75
2024/03/08 06:52:44;;;;;;;;;;;9.30;67.80;;;;;;5023352;28;19993;-74
2024/03/08 06:55:12;;;;;;;;;;;9.30;67.30;;;;;;5026012;28;19994;-74
2024/03/08 06:57:40;;;;;;;;;;;9.30;67.00;;;;;;5033066;28;20396;-76
2024/03/08 07:00:09;;;;;;;;;;;9.40;66.80;;;;;;5024121;28;20021;-74
2024/03/08 07:02:35;;;;;;;;;;;9.40;66.40;;;;;;5030480;28;19993;-74
2024/03/08 07:05:01;;;;;;;;;;;9.50;66.20;;;;;;5031546;28;20040;-73
2024/03/08 07:07:27;;;;;;;;;;;9.40;66.50;;;;;;5027809;28;19994;-73
2024/03/08 07:09:52;;;;;;;;;;;9.50;66.30;;;;;;5020806;28;20021;-74
2024/03/08 07:12:18;;;;;;;;;;;9.60;65.60;;;;;;5020204;28;20001;-75
2024/03/08 07:14:45;;;;;;;;;;;9.70;65.00;;;;;;5022753;28;20472;-74
2024/03/08 07:17:11;;;;;;;;;;;9.70;65.10;;;;;;5024013;28;19996;-74
2024/03/08 07:19:38;;;;;;;;;;;9.70;65.20;;;;;;5023145;28;20084;-73
2024/03/08 07:22:04;;;;;;;;;;;9.80;64.80;;;;;;5022481;28;20487;-74
2024/03/08 07:27:13;;;;;;;;;;;9.80;64.70;;;;;;5023100;28;20020;-75
2024/03/08 07:29:39;;;;;;;;;;;9.90;65.00;;;;;;5023187;28;19994;-76
2024/03/08 07:32:24;;;;;;;;;;;9.90;65.10;;;;;;5022691;28;20100;-74
2024/03/08 07:34:53;;;;;;;;;;;10.00;64.20;;;;;;5022977;28;20159;-76
2024/03/08 07:37:20;;;;;;;;;;;10.10;64.20;;;;;;5022863;28;19989;-74
2024/03/08 07:39:45;;;;;;;;;;;10.30;64.10;;;;;;5022755;28;19990;-74
2024/03/08 07:42:12;;;;;;;;;;;10.60;63.30;;;;;;5022646;28;19993;-74
2024/03/08 07:44:37;;;;;;;;;;;11.00;61.90;;;;;;5025219;28;19993;-74
2024/03/08 07:47:03;;;;;;;;;;;10.90;62.80;;;;;;5025267;28;20472;-75
2024/03/08 07:49:29;;;;;;;;;;;11.30;61.70;;;;;;5023311;28;20079;-74
2024/03/08 07:51:55;;;;;;;;;;;11.80;61.00;;;;;;5022122;28;20469;-74
2024/03/08 07:54:23;;;;;;;;;;;11.30;60.70;;;;;;5005147;28;20021;-75
2024/03/08 07:56:48;;;;;;;;;;;12.00;60.30;;;;;;5006394;28;19994;-74
2024/03/08 07:59:14;;;;;;;;;;;11.60;60.50;;;;;;5026665;28;19990;-74
2024/03/08 08:01:40;;;;;;;;;;;11.50;61.10;;;;;;5021583;28;20012;-74
2024/03/08 08:04:06;;;;;;;;;;;11.50;61.50;;;;;;5021226;28;19989;-74
2024/03/08 08:06:36;;;;;;;;;;;11.10;62.70;;;;;;5022466;28;20124;-74
2024/03/08 08:09:02;;;;;;;;;;;11.10;62.80;;;;;;5021257;28;19998;-74
2024/03/08 08:11:28;;;;;;;;;;;11.10;63.10;;;;;;5022849;28;20017;-74
2024/03/08 08:13:54;;;;;;;;;;;11.30;64.50;;;;;;5020835;28;20028;-73
2024/03/08 08:16:20;;;;;;;;;;;11.50;63.50;;;;;;5015002;28;20012;-75
2024/03/08 08:18:47;;;;;;;;;;;11.40;63.00;;;;;;5023576;28;19998;-74
2024/03/08 08:21:13;;;;;;;;;;;11.10;63.90;;;;;;5021512;28;20068;-74
2024/03/08 08:23:38;;;;;;;;;;;11.30;63.80;;;;;;5021737;28;20572;-74
2024/03/08 08:26:04;;;;;;;;;;;11.10;64.20;;;;;;5021669;28;19990;-74
2024/03/08 08:28:30;;;;;;;;;;;11.10;64.40;;;;;;5022042;28;20048;-75
2024/03/08 08:30:56;;;;;;;;;;;11.10;64.80;;;;;;5025999;28;20013;-74
2024/03/08 08:33:21;;;;;;;;;;;11.10;65.00;;;;;;5021622;28;20353;-75
2024/03/08 08:35:47;;;;;;;;;;;11.00;65.60;;;;;;5022267;28;19994;-74
2024/03/08 08:38:13;;;;;;;;;;;11.00;65.90;;;;;;5022018;28;19990;-74
2024/03/08 08:40:38;;;;;;;;;;;11.00;65.80;;;;;;5023118;28;20785;-74
2024/03/08 08:43:04;;;;;;;;;;;10.90;66.30;;;;;;5018387;28;19990;-73
2024/03/08 08:45:33;;;;;;;;;;;10.90;66.50;;;;;;5021411;28;20000;-74
2024/03/08 08:48:01;;;;;;;;;;;11.00;66.20;;;;;;5019083;28;20132;-75
2024/03/08 08:50:28;;;;;;;;;;;11.00;66.40;;;;;;5007341;28;20152;-74
2024/03/08 08:52:54;;;;;;;;;;;11.10;66.80;;;;;;5020856;28;20911;-76
2024/03/08 08:55:25;;;;;;;;;;;11.10;66.60;;;;;;5021831;28;19989;-74
2024/03/08 08:57:53;;;;;;;;;;;11.00;66.20;;;;;;5006911;28;20445;-74
2024/03/08 09:00:20;;;;;;;;;;;11.10;66.20;;;;;;5021244;28;20085;-75
2024/03/08 09:02:46;;;;;;;;;;;11.10;66.30;;;;;;5021331;28;19990;-73
2024/03/08 09:05:12;;;;;;;;;;;11.10;66.30;;;;;;5003681;28;20048;-73
2024/03/08 09:07:37;;;;;;;;;;;11.10;67.20;;;;;;5021877;28;20052;-73
2024/03/08 09:10:03;;;;;;;;;;;11.20;66.60;;;;;;5020903;28;20425;-74
2024/03/08 09:12:29;;;;;;;;;;;11.20;66.30;;;;;;5021272;28;19998;-74
2024/03/08 09:14:55;;;;;;;;;;;11.30;66.40;;;;;;5021317;28;19990;-75
2024/03/08 09:17:20;;;;;;;;;;;11.30;66.30;;;;;;5023810;28;20046;-74
2024/03/08 09:19:47;;;;;;;;;;;11.20;66.80;;;;;;5021462;28;19990;-74
2024/03/08 09:22:13;;;;;;;;;;;11.20;66.70;;;;;;5020950;28;19990;-75
2024/03/08 09:24:38;;;;;;;;;;;11.10;67.10;;;;;;5023664;28;20754;-74
2024/03/08 09:27:04;;;;;;;;;;;11.00;67.30;;;;;;5025711;28;20020;-75
2024/03/08 09:29:29;;;;;;;;;;;11.20;67.50;;;;;;5024984;28;19997;-76
2024/03/08 09:31:55;;;;;;;;;;;11.10;67.60;;;;;;5025199;28;20002;-74
2024/03/08 09:34:21;;;;;;;;;;;11.00;68.60;;;;;;5025622;28;20464;-74
2024/03/08 09:36:46;;;;;;;;;;;10.90;68.00;;;;;;5026334;28;20387;-73
2024/03/08 09:39:16;;;;;;;;;;;10.90;68.00;;;;;;5024851;28;19990;-74
2024/03/08 09:41:47;;;;;;;;;;;10.90;68.30;;;;;;5022707;28;20025;-74
2024/03/08 09:44:14;;;;;;;;;;;10.90;68.40;;;;;;5025122;28;19990;-74
2024/03/08 09:46:40;;;;;;;;;;;10.90;68.30;;;;;;5023976;28;20060;-75
2024/03/08 09:49:06;;;;;;;;;;;10.90;68.30;;;;;;5024612;28;19993;-73
2024/03/08 09:51:33;;;;;;;;;;;11.00;68.00;;;;;;5026176;28;20469;-74
2024/03/08 09:53:59;;;;;;;;;;;11.20;67.10;;;;;;5025257;28;20401;-74
2024/03/08 09:56:25;;;;;;;;;;;11.20;67.30;;;;;;5025796;28;19993;-75
2024/03/08 09:59:51;;;;;;;;;;;11.30;67.20;;;;;;5024191;28;20357;-75
2024/03/08 10:01:46;;;;;;;;;;;11.40;67.60;;;;;;5008669;28;20512;-74
2024/03/08 10:04:12;;;;;;;;;;;11.30;66.80;;;;;;5024145;28;20071;-74
2024/03/08 10:06:37;;;;;;;;;;;11.60;67.10;;;;;;5006394;28;20823;-73
2024/03/08 10:09:04;;;;;;;;;;;11.60;66.30;;;;;;5027630;28;20001;-75
2024/03/08 10:11:30;;;;;;;;;;;11.40;66.40;;;;;;5024015;28;20605;-75
2024/03/08 10:13:56;;;;;;;;;;;11.50;66.20;;;;;;5024262;28;19997;-74
2024/03/08 10:16:24;;;;;;;;;;;11.50;65.90;;;;;;5017336;28;20105;-74
2024/03/08 10:18:49;;;;;;;;;;;11.30;66.70;;;;;;5026958;28;20117;-75
2024/03/08 10:21:16;;;;;;;;;;;11.20;67.50;;;;;;5023630;28;20002;-74
2024/03/08 10:23:45;;;;;;;;;;;11.00;67.60;;;;;;5024697;28;20028;-74
2024/03/08 10:26:14;;;;;;;;;;;11.10;67.90;;;;;;5023599;28;20045;-73
2024/03/08 10:28:40;;;;;;;;;;;11.00;68.40;;;;;;5011592;28;20536;-75
2024/03/08 10:31:06;;;;;;;;;;;11.00;68.30;;;;;;5024214;28;20006;-73
2024/03/08 10:33:32;;;;;;;;;;;10.50;74.70;;;;;;5023971;28;20161;-75
2024/03/08 10:35:58;;;;;;;;;;;10.70;70.70;;;;;;5023188;28;20016;-74
2024/03/08 10:38:24;;;;;;;;;;;10.40;82.40;;;;;;5023871;28;20014;-74
2024/03/08 10:40:52;;;;;;;;;;;10.50;80.70;;;;;;5007054;28;19997;-75
2024/03/08 10:43:30;;;;;;;;;;;10.10;85.30;;;;;;5020935;28;19986;-74
2024/03/08 10:46:05;;;;;;;;;;;9.30;97.10;;;;;;5024805;28;19985;-73
2024/03/08 10:48:31;;;;;;;;;;;8.70;99.90;;;;;;5023801;28;19996;-74
2024/03/08 10:50:57;;;;;;;;;;;8.30;99.90;;;;;;5023069;28;20005;-73
2024/03/08 10:53:24;;;;;;;;;;;8.10;99.90;;;;;;5024020;28;19999;-73
2024/03/08 10:55:53;;;;;;;;;;;8.00;99.90;;;;;;5023057;28;20085;-74
2024/03/08 10:58:21;;;;;;;;;;;8.10;99.90;;;;;;5023153;28;19994;-72
2024/03/08 11:00:49;;;;;;;;;;;8.30;99.90;;;;;;5023755;28;20361;-72
2024/03/08 11:03:34;;;;;;;;;;;8.10;99.90;;;;;;5023712;28;19994;-72
2024/03/08 11:06:00;;;;;;;;;;;7.90;99.90;;;;;;5022749;28;20025;-72
2024/03/08 11:08:26;;;;;;;;;;;7.90;99.90;;;;;;5023850;28;19990;-71
2024/03/08 11:10:53;;;;;;;;;;;8.00;99.90;;;;;;5027743;28;20021;-73
2024/03/08 11:13:35;;;;;;;;;;;8.10;99.90;;;;;;5022710;28;20460;-73
2024/03/08 11:16:05;;;;;;;;;;;7.90;99.90;;;;;;5023243;28;20569;-72
2024/03/08 11:18:42;;;;;;;;;;;8.00;99.90;;;;;;5024735;28;20000;-72
2024/03/08 11:21:12;;;;;;;;;;;8.20;99.90;;;;;;5023444;28;20411;-72
2024/03/08 11:23:39;;;;;;;;;;;8.40;99.90;;;;;;5023029;28;19990;-72
2024/03/08 11:26:23;;;;;;;;;;;8.20;99.90;;;;;;5029778;28;20080;-73
2024/03/08 11:28:51;;;;;;;;;;;8.10;99.90;;;;;;5019574;28;19992;-74
2024/03/08 11:31:25;;;;;;;;;;;8.10;99.90;;;;;;5014251;28;20021;-75
2024/03/08 11:33:53;;;;;;;;;;;7.90;99.90;;;;;;5019766;28;20041;-74
2024/03/08 11:36:24;;;;;;;;;;;7.80;99.90;;;;;;5023184;28;20473;-75
2024/03/08 11:38:51;;;;;;;;;;;7.80;99.90;;;;;;5022946;28;19994;-77
2024/03/08 11:41:20;;;;;;;;;;;7.50;99.90;;;;;;5022851;28;19993;-76
2024/03/08 11:43:47;;;;;;;;;;;7.60;99.90;;;;;;5022769;28;20036;-75
2024/03/08 11:46:13;;;;;;;;;;;7.30;99.90;;;;;;5021422;28;19993;-75
2024/03/08 11:48:42;;;;;;;;;;;7.50;99.90;;;;;;5022576;28;19990;-76
2024/03/08 11:51:11;;;;;;;;;;;7.40;99.90;;;;;;5021858;28;20016;-75
2024/03/08 11:53:40;;;;;;;;;;;7.50;99.90;;;;;;5022838;28;19990;-75
2024/03/08 11:56:13;;;;;;;;;;;7.30;99.90;;;;;;5023251;28;20338;-76
2024/03/08 11:58:39;;;;;;;;;;;7.60;99.90;;;;;;5022067;28;19994;-75
2024/03/08 12:01:12;;;;;;;;;;;7.80;99.90;;;;;;5022382;28;20104;-76
2024/03/08 12:03:42;;;;;;;;;;;7.70;99.90;;;;;;5024532;28;19990;-75
2024/03/08 12:06:10;;;;;;;;;;;7.60;99.90;;;;;;5019967;28;20044;-75
2024/03/08 12:08:36;;;;;;;;;;;7.80;99.90;;;;;;5022028;28;19989;-76
2024/03/08 12:11:05;;;;;;;;;;;7.80;99.90;;;;;;5023675;28;20032;-76
2024/03/08 12:13:31;;;;;;;;;;;7.70;99.90;;;;;;5025736;28;19996;-76
2024/03/08 12:16:00;;;;;;;;;;;7.50;99.90;;;;;;5021884;28;19990;-75
2024/03/08 12:18:27;;;;;;;;;;;7.50;99.90;;;;;;5023790;28;19989;-76
2024/03/08 12:21:10;;;;;;;;;;;7.70;99.90;;;;;;5022564;28;19997;-77
2024/03/08 12:23:36;;;;;;;;;;;7.70;99.90;;;;;;5021976;28;19989;-76
2024/03/08 12:26:13;;;;;;;;;;;7.90;99.90;;;;;;5022560;28;20044;-74
2024/03/08 12:28:40;;;;;;;;;;;8.10;99.90;;;;;;5020228;28;20031;-75
2024/03/08 12:31:10;;;;;;;;;;;8.00;99.90;;;;;;5022062;28;20113;-75
2024/03/08 12:33:37;;;;;;;;;;;7.80;99.90;;;;;;5022448;28;20389;-75
2024/03/08 12:36:06;;;;;;;;;;;7.80;99.90;;;;;;5021521;28;20077;-73
2024/03/08 12:38:32;;;;;;;;;;;7.90;99.90;;;;;;5021892;28;20535;-75
2024/03/08 12:40:58;;;;;;;;;;;7.90;99.90;;;;;;5021901;28;19994;-73
2024/03/08 12:43:23;;;;;;;;;;;7.80;99.90;;;;;;5021810;28;19997;-73
2024/03/08 12:45:50;;;;;;;;;;;7.60;99.90;;;;;;5023381;28;20002;-74
2024/03/08 12:48:15;;;;;;;;;;;7.60;99.90;;;;;;5021571;28;20584;-73
2024/03/08 12:50:43;;;;;;;;;;;7.20;99.90;;;;;;5021835;28;20036;-73
2024/03/08 12:53:09;;;;;;;;;;;7.10;99.90;;;;;;5021914;28;20845;-72
2024/03/08 12:55:34;;;;;;;;;;;7.00;99.90;;;;;;5022330;28;19989;-74
2024/03/08 12:58:00;;;;;;;;;;;7.10;99.90;;;;;;5011202;28;19996;-73
2024/03/08 13:00:28;;;;;;;;;;;7.00;99.90;;;;;;5025276;28;20128;-72
2024/03/08 13:02:53;;;;;;;;;;;7.10;99.90;;;;;;5025136;28;20105;-74
2024/03/08 13:05:19;;;;;;;;;;;7.20;99.90;;;;;;5025815;28;20445;-72
2024/03/08 13:07:46;;;;;;;;;;;7.40;99.90;;;;;;5025582;28;19990;-73
2024/03/08 13:10:15;;;;;;;;;;;7.20;99.90;;;;;;5019223;28;20030;-72
2024/03/08 13:12:41;;;;;;;;;;;7.40;99.90;;;;;;5007959;28;19998;-74
2024/03/08 13:15:08;;;;;;;;;;;7.40;99.90;;;;;;5005668;28;20461;-74
2024/03/08 13:17:34;;;;;;;;;;;7.30;99.90;;;;;;5006043;28;19990;-73
2024/03/08 13:19:59;;;;;;;;;;;7.50;99.90;;;;;;4998918;28;20001;-74
2024/03/08 13:22:25;;;;;;;;;;;7.50;99.90;;;;;;5005680;28;19997;-73
2024/03/08 13:24:52;;;;;;;;;;;7.90;99.90;;;;;;4995187;28;20041;-74
2024/03/08 13:27:21;;;;;;;;;;;8.40;99.90;;;;;;5010416;28;19997;-74
2024/03/08 13:29:48;;;;;;;;;;;8.90;99.90;;;;;;5005634;28;19990;-74
2024/03/08 13:32:17;;;;;;;;;;;8.50;99.90;;;;;;5005010;28;20045;-73
2024/03/08 13:34:43;;;;;;;;;;;8.60;99.90;;;;;;4987662;28;19998;-74
2024/03/08 13:37:09;;;;;;;;;;;8.80;99.90;;;;;;5004692;28;20404;-74
2024/03/08 13:39:40;;;;;;;;;;;8.80;99.90;;;;;;5005223;28;19990;-75
2024/03/08 13:42:16;;;;;;;;;;;8.30;99.90;;;;;;5005180;28;19993;-74
2024/03/08 13:44:48;;;;;;;;;;;8.20;99.90;;;;;;4989163;28;20013;-74
2024/03/08 13:47:15;;;;;;;;;;;8.10;99.90;;;;;;5002127;28;20105;-74
2024/03/08 13:49:40;;;;;;;;;;;7.90;99.90;;;;;;5004222;28;20104;-75
2024/03/08 13:52:08;;;;;;;;;;;7.70;99.90;;;;;;5006120;28;20096;-77
2024/03/08 13:54:34;;;;;;;;;;;7.70;99.90;;;;;;5004452;28;19994;-76
2024/03/08 13:57:00;;;;;;;;;;;7.60;99.90;;;;;;5006578;28;19990;-75
2024/03/08 13:59:29;;;;;;;;;;;8.00;99.90;;;;;;5004030;28;19998;-75
2024/03/08 14:01:54;;;;;;;;;;;8.70;99.90;;;;;;4982845;28;20702;-75
2024/03/08 14:04:20;;;;;;;;;;;9.00;99.90;;;;;;5004040;28;19997;-76
2024/03/08 14:06:46;;;;;;;;;;;9.00;99.90;;;;;;5004201;28;20048;-75
2024/03/08 14:09:17;;;;;;;;;;;8.80;99.90;;;;;;4988007;28;20021;-77
2024/03/08 14:11:44;;;;;;;;;;;9.00;99.90;;;;;;5024781;28;20016;-76
2024/03/08 14:14:11;;;;;;;;;;;9.20;99.90;;;;;;5024296;28;19994;-76
2024/03/08 14:16:37;;;;;;;;;;;9.10;99.90;;;;;;5024169;28;20109;-75
2024/03/08 14:19:05;;;;;;;;;;;8.60;99.90;;;;;;5025369;28;19994;-76
2024/03/08 14:21:31;;;;;;;;;;;8.90;99.90;;;;;;5024041;28;19986;-75
2024/03/08 14:23:57;;;;;;;;;;;9.00;99.90;;;;;;5024749;28;19990;-76
2024/03/08 14:26:22;;;;;;;;;;;8.90;99.90;;;;;;5024557;28;19996;-75